This is the latest recevied weather packets stored in our database for station/object CE3PA-5. If no packets are shown the sender has not sent any weather packets the latest 1 day(s).
| Time | Temp. | Humidity | Pressure | Rain* | Wind** | Luminosity | Snow |
|---|---|---|---|---|---|---|---|
| 1777882262 | 8.89° C | 20% | 755.7 hPa | - | - | - | - |
| 1777881361 | 8.89° C | 20% | 755.7 hPa | - | - | - | - |
| 1777880461 | 8.89° C | 20% | 755.7 hPa | - | - | - | - |
| 1777877761 | 8.89° C | 20% | 755.9 hPa | - | - | - | - |
| 1777876858 | 8.89° C | 20% | 756 hPa | - | - | - | - |
| 1777875956 | 8.89° C | 21% | 755.9 hPa | - | - | - | - |
| 1777874151 | 8.33° C | 21% | 756.3 hPa | - | - | - | - |
| 1777873255 | 8.33° C | 21% | 756.4 hPa | - | - | - | - |
| 1777870553 | 8.89° C | 21% | 756.3 hPa | - | - | - | - |
| 1777866953 | 9.44° C | 21% | 756.4 hPa | - | - | - | - |
| 1777866149 | 9.44° C | 21% | 756.3 hPa | - | - | - | - |
| 1777866053 | 9.44° C | 21% | 756.3 hPa | - | - | - | - |
| 1777862453 | 10° C | 20% | 756.4 hPa | - | - | - | - |
| 1777861552 | 10° C | 20% | 756.7 hPa | - | - | - | - |
| 1777860652 | 10° C | 20% | 756.7 hPa | - | - | - | - |
| 1777857951 | 11.11° C | 20% | 756.7 hPa | - | - | - | - |
| 1777856151 | 10.56° C | 21% | 756.9 hPa | - | - | - | - |
| 1777855252 | 11.11° C | 21% | 756.9 hPa | - | - | - | - |
| 1777853451 | 11.11° C | 21% | 756.9 hPa | - | - | - | - |
| 1777851653 | 11.67° C | 21% | 756.9 hPa | - | - | - | - |
| 1777850753 | 11.67° C | 21% | 756.9 hPa | - | - | - | - |
| 1777849854 | 12.22° C | 21% | 756.9 hPa | - | - | - | - |
| 1777848953 | 12.78° C | 21% | 756.8 hPa | - | - | - | - |
| 1777848053 | 12.78° C | 21% | 756.9 hPa | - | - | - | - |
| 1777847153 | 13.33° C | 21% | 756.8 hPa | - | - | - | - |
* Rain since midnight (hover to see other rain measurements)
** Current wind speed in m/s (hover to see current wind gust speed)